Disclaimer

Please do not use the information listed here in-flight or in-navigation, as they are not provided to us by the airports but are provided by volunteers, so they might be outdated.

Search


Regions


Airport information page

Radio informations:
CHITTAGONG TWR - 118.7 MHz
CHITTAGONG GND - 121.8 MHz
Automatic Terminal Information Service (ATIS) - 127.6 MHz

Airport informations:
Latitude: 22° 14' 58.60" N
Longitude: 091° 48' 47.83" E
Elevation: 12 feet - 4 meters
Operating hours: N/A
Operating agency: Military-civil joint use airport
Timezone: UTC+6
Fuel: Jet A1, without icing nhibitor.

100/130 MIL Spec, low lead, aviation gasoline (BLUE)

Runway information:
05/23 - 9646 x 150 feet< - >2940 x 46 meters

Recent METARs:
VGEG 171000Z 24003KT 4000 HZ NSC 27/08 Q1012 NOSIG
VGEG 171100Z 00000KT 4000 HZ NSC 25/10 Q1012 NOSIG
VGEG 171100Z 00000KT 4000 HZ NSC 25/10 Q1012 NOSIG

Airport on the map: